الصفحة الرئيسية
METAR-TAF:

METAR-TAF

مطار :

مطار النجف الدولي

النجف, العراق

دائرة عرض: 31-59-23N, خط طول: 44-24-15E, ارتفاع: 31 متر

مراقبة الطقس الحالي

تاريخ ووقت الإصدار 56 دقيقة قبل الساعة 04:00UTC
ريح 9 عقدة من الشمال
درجة الحرارة 36°درجة مئوية
الرطوبة 15%
ضغط 1003 hPa
الرؤية: 6000 متر

METAR: ORNI 190400Z 36009KT 6000 NSC 36/05 Q1003

زمن: 07:56 (04:56 UTC)


TAF: مفقودة

أرصاد الطقس والتوقعات من أكثر من 4000 مطار (تقارير الطقس للمطار METAR والتنبؤ بالطقس بالمطارTAF).

المحطات المتاحة هي النقط الصفراء والحمراء على الخريطة.

حرك المؤشر فوق النقطة لمعرفة اسم المحطة.

ثم انقر لمعرفة أرصاد وتوقعات الطقس.

لتغيير الخارطة: اضغط على الأزرار الخضراء مع رمز الصليب الأسود للتكبير. على الزر الأخضر مع شرطة للتصغير، أو على الأسهم الخضراء للخرائط المجاورة.


METAR-TAF: